Time;durP1;ratioP1;P1;durP2;ratioP2;P2;SDS_P1;SDS_P2;PMS_P1;PMS_P2;Temp;Humidity;BMP_temperature;BMP_pressure;BME280_temperature;BME280_humidity;BME280_pressure;Samples;Min_cycle;Max_cycle;Signal;HPM_P1;HPM_P2
2021/11/07 00:02:25;;;;;;;6.72;1.70;;;7.00;99.90;;;;;;5061822;28;20045;-62
2021/11/07 00:05:01;;;;;;;5.82;1.65;;;7.00;99.90;;;;;;5082050;28;20044;-63
2021/11/07 00:07:41;;;;;;;6.30;2.28;;;7.00;99.90;;;;;;5078024;28;20044;-63
2021/11/07 00:10:14;;;;;;;5.07;1.65;;;7.10;99.90;;;;;;5076661;28;20563;-62
2021/11/07 00:12:43;;;;;;;5.10;2.17;;;7.00;99.90;;;;;;5079551;28;20555;-63
2021/11/07 00:15:13;;;;;;;3.13;1.98;;;7.00;99.90;;;;;;5081238;28;20125;-63
2021/11/07 00:17:43;;;;;;;6.10;2.80;;;7.00;99.90;;;;;;5073303;28;20057;-63
2021/11/07 00:20:16;;;;;;;2.80;1.77;;;7.00;99.90;;;;;;5064836;28;20496;-62
2021/11/07 00:22:49;;;;;;;8.00;2.65;;;7.00;99.90;;;;;;5064851;28;20965;-63
2021/11/07 00:27:55;;;;;;;4.63;2.40;;;7.00;99.90;;;;;;5065047;28;20044;-60
2021/11/07 00:33:18;;;;;;;;;;;7.10;99.90;;;;;;5065776;28;20513;-60
2021/11/07 00:36:07;;;;;;;4.65;2.15;;;7.10;99.90;;;;;;5066059;28;19996;-60
2021/11/07 00:38:55;;;;;;;3.97;2.22;;;7.10;99.90;;;;;;5068406;28;20048;-60
2021/11/07 00:46:47;;;;;;;4.15;2.45;;;7.10;99.90;;;;;;5067033;28;20810;-61
2021/11/07 00:49:27;;;;;;;2.60;1.80;;;7.10;99.90;;;;;;5068349;28;20071;-59
2021/11/07 00:54:36;;;;;;;2.83;1.95;;;7.00;99.90;;;;;;5069378;28;20032;-60
2021/11/07 00:57:15;;;;;;;3.55;2.10;;;7.10;99.90;;;;;;5068848;28;20051;-60
2021/11/07 00:59:53;;;;;;;4.45;2.50;;;7.10;99.90;;;;;;5069888;28;20504;-61
2021/11/07 01:02:40;;;;;;;4.07;2.17;;;7.10;99.90;;;;;;5068308;28;20063;-60
2021/11/07 01:05:19;;;;;;;7.47;2.30;;;7.10;99.90;;;;;;5068262;28;20044;-62
2021/11/07 01:07:46;;;;;;;4.03;2.50;;;7.10;99.90;;;;;;5068091;28;20433;-62
2021/11/07 01:10:15;;;;;;;4.53;2.25;;;7.10;99.90;;;;;;5069633;28;20083;-63
2021/11/07 01:12:41;;;;;;;4.40;2.65;;;7.10;99.90;;;;;;5054920;28;20380;-62
2021/11/07 01:15:07;;;;;;;2.22;1.58;;;7.10;99.90;;;;;;5049277;28;20041;-62
2021/11/07 01:17:33;;;;;;;5.75;2.22;;;7.10;99.90;;;;;;5045802;28;20048;-62
2021/11/07 01:19:59;;;;;;;3.90;1.92;;;7.10;99.90;;;;;;5046633;28;20033;-62
2021/11/07 01:22:52;;;;;;;3.25;2.10;;;7.10;99.90;;;;;;5046676;28;20029;-62
2021/11/07 01:25:18;;;;;;;2.65;1.80;;;7.10;99.90;;;;;;5047615;28;20049;-62
2021/11/07 01:27:45;;;;;;;;;;;7.10;99.90;;;;;;5060002;28;20082;-61
2021/11/07 01:30:17;;;;;;;2.97;1.65;;;7.10;99.90;;;;;;5064536;28;19921;-62
2021/11/07 01:32:52;;;;;;;3.65;1.67;;;7.10;99.90;;;;;;5067910;28;20185;-62
2021/11/07 01:40:26;;;;;;;2.38;1.40;;;7.10;99.90;;;;;;5069082;28;20085;-62
2021/11/07 01:42:56;;;;;;;5.43;2.20;;;7.10;99.90;;;;;;5068990;28;20097;-61
2021/11/07 01:45:39;;;;;;;3.28;1.88;;;7.00;99.90;;;;;;5067898;28;20041;-61
2021/11/07 01:48:13;;;;;;;2.97;1.58;;;7.00;99.90;;;;;;5061048;28;20128;-62
2021/11/07 01:50:45;;;;;;;4.57;1.70;;;7.00;99.90;;;;;;5046999;28;20048;-62
2021/11/07 01:53:21;;;;;;;2.83;1.70;;;6.90;99.90;;;;;;5047943;28;20724;-62
2021/11/07 01:55:47;;;;;;;2.80;2.05;;;6.90;99.90;;;;;;5049827;28;20042;-63
2021/11/07 01:58:13;;;;;;;3.13;1.80;;;6.90;99.90;;;;;;5065564;28;20131;-62
2021/11/07 02:00:38;;;;;;;;;;;6.90;99.90;;;;;;5067661;28;20738;-62
2021/11/07 02:03:07;;;;;;;2.45;1.25;;;6.90;99.90;;;;;;5068468;28;20400;-62
2021/11/07 02:05:39;;;;;;;4.88;1.77;;;6.90;99.90;;;;;;5067800;28;20063;-62
2021/11/07 02:08:12;;;;;;;3.05;1.58;;;6.90;99.90;;;;;;5064454;28;20559;-62
2021/11/07 02:10:40;;;;;;;3.08;1.50;;;6.80;99.90;;;;;;5068478;28;20659;-60
2021/11/07 02:13:07;;;;;;;2.53;1.55;;;6.80;99.90;;;;;;5068719;28;20094;-62
2021/11/07 02:15:35;;;;;;;2.47;1.38;;;6.80;99.90;;;;;;5066643;28;20127;-61
2021/11/07 02:18:06;;;;;;;1.85;1.30;;;6.80;99.90;;;;;;5066766;28;20087;-62
2021/11/07 02:20:36;;;;;;;3.58;1.15;;;6.80;99.90;;;;;;5068165;28;20526;-62
2021/11/07 02:23:12;;;;;;;1.25;1.05;;;6.80;99.90;;;;;;5067312;28;20041;-62
2021/11/07 02:25:39;;;;;;;2.40;1.30;;;6.80;99.90;;;;;;5067157;28;20044;-62
2021/11/07 02:28:07;;;;;;;2.13;1.30;;;6.80;99.90;;;;;;5067055;28;20068;-61
2021/11/07 02:30:40;;;;;;;2.00;1.50;;;6.80;99.90;;;;;;5056324;28;20202;-62
2021/11/07 02:33:06;;;;;;;1.67;1.30;;;6.80;99.90;;;;;;5067496;28;20054;-63
2021/11/07 02:35:36;;;;;;;5.63;1.48;;;6.80;99.90;;;;;;5067379;28;20528;-62
2021/11/07 02:38:02;;;;;;;2.25;1.33;;;6.80;99.90;;;;;;5064750;28;20131;-62
2021/11/07 02:40:30;;;;;;;3.83;1.58;;;6.80;99.90;;;;;;5063343;28;20075;-62
2021/11/07 02:42:56;;;;;;;2.30;1.27;;;6.80;99.90;;;;;;5067255;28;20068;-62
2021/11/07 02:45:22;;;;;;;;;;;6.80;99.90;;;;;;5066620;28;20119;-62
2021/11/07 02:47:54;;;;;;;2.20;1.00;;;6.90;99.90;;;;;;5066719;28;20366;-62
2021/11/07 02:50:20;;;;;;;2.65;1.00;;;6.90;99.90;;;;;;5067501;28;20036;-62
2021/11/07 02:52:50;;;;;;;2.75;2.08;;;6.90;99.90;;;;;;5066823;28;20164;-62
2021/11/07 02:55:23;;;;;;;1.70;1.35;;;6.90;99.90;;;;;;5066111;28;20113;-61
2021/11/07 02:57:59;;;;;;;2.60;1.55;;;6.80;99.90;;;;;;5062871;28;20132;-61
2021/11/07 03:00:30;;;;;;;1.17;1.00;;;6.80;99.90;;;;;;5065861;28;20580;-62
2021/11/07 03:02:58;;;;;;;1.35;1.08;;;6.90;99.90;;;;;;5067837;28;20049;-62
2021/11/07 03:05:29;;;;;;;2.03;1.27;;;6.90;99.90;;;;;;5065908;28;20032;-62
2021/11/07 03:07:55;;;;;;;1.73;1.45;;;6.90;99.90;;;;;;5066760;28;20275;-62
2021/11/07 03:10:29;;;;;;;1.40;1.08;;;6.90;99.90;;;;;;5059425;28;20071;-62
2021/11/07 03:13:26;;;;;;;2.72;1.75;;;6.90;99.90;;;;;;5067402;28;20076;-62
2021/11/07 03:15:51;;;;;;;2.63;1.52;;;6.90;99.90;;;;;;5044779;28;20085;-62
2021/11/07 03:18:20;;;;;;;1.92;1.20;;;6.90;99.90;;;;;;5065779;28;20111;-62
2021/11/07 03:20:54;;;;;;;3.05;1.55;;;6.90;99.90;;;;;;5064752;28;20515;-61
2021/11/07 03:23:25;;;;;;;2.35;1.38;;;6.80;99.90;;;;;;5067220;28;20501;-62
2021/11/07 03:26:02;;;;;;;2.10;1.10;;;6.90;99.90;;;;;;5066626;28;20047;-62
2021/11/07 03:28:30;;;;;;;2.08;1.13;;;6.90;99.90;;;;;;5067031;28;20048;-62
2021/11/07 03:33:45;;;;;;;1.80;1.27;;;6.90;99.90;;;;;;5066524;28;20055;-62
2021/11/07 03:36:16;;;;;;;1.27;1.02;;;6.80;99.90;;;;;;5064913;28;20557;-62
2021/11/07 03:38:44;;;;;;;1.50;0.88;;;6.80;99.90;;;;;;5065215;28;20119;-62
2021/11/07 03:41:10;;;;;;;1.55;1.10;;;6.80;99.90;;;;;;5065282;28;20671;-62
2021/11/07 03:43:36;;;;;;;1.13;0.65;;;6.80;99.90;;;;;;5066920;28;20123;-62
2021/11/07 03:46:02;;;;;;;;;;;6.80;99.90;;;;;;5065633;28;21109;-62
2021/11/07 03:48:27;;;;;;;1.15;0.90;;;6.90;99.90;;;;;;5063308;28;19916;-61
2021/11/07 03:50:54;;;;;;;2.10;1.08;;;6.80;99.90;;;;;;5061740;28;20691;-62
2021/11/07 03:53:20;;;;;;;1.02;0.88;;;6.80;99.90;;;;;;5068661;28;20071;-62
2021/11/07 03:55:46;;;;;;;0.93;0.65;;;6.80;99.90;;;;;;5068255;28;20040;-62
2021/11/07 03:58:11;;;;;;;0.85;0.50;;;6.80;99.90;;;;;;5070219;28;20105;-62
2021/11/07 04:00:37;;;;;;;0.95;0.60;;;6.80;99.90;;;;;;5070334;28;20118;-62
2021/11/07 04:03:05;;;;;;;0.60;0.52;;;6.80;99.90;;;;;;5070740;28;20039;-62
2021/11/07 04:05:31;;;;;;;0.60;0.40;;;6.80;99.90;;;;;;5068731;28;20044;-61
2021/11/07 04:07:57;;;;;;;0.50;0.50;;;6.80;99.90;;;;;;5065701;28;20554;-62
2021/11/07 04:10:23;;;;;;;0.55;0.50;;;6.80;99.90;;;;;;5069798;28;20032;-61
2021/11/07 04:12:49;;;;;;;0.40;0.30;;;6.80;99.90;;;;;;5070505;28;20416;-62
2021/11/07 04:15:16;;;;;;;1.58;0.40;;;6.80;99.90;;;;;;5068992;28;20044;-62
2021/11/07 04:17:42;;;;;;;1.02;0.40;;;6.80;99.90;;;;;;5067186;28;20758;-62
2021/11/07 04:20:09;;;;;;;0.40;0.40;;;6.80;99.90;;;;;;5067943;28;20040;-62
2021/11/07 04:22:35;;;;;;;0.80;0.38;;;6.80;99.90;;;;;;5070225;28;20041;-62
2021/11/07 04:25:01;;;;;;;0.52;0.40;;;6.80;99.90;;;;;;5070127;28;20074;-62
2021/11/07 04:27:27;;;;;;;0.52;0.43;;;6.80;99.90;;;;;;5067035;28;20411;-62
2021/11/07 04:29:53;;;;;;;0.80;0.60;;;6.80;99.90;;;;;;5069400;28;20079;-62
2021/11/07 04:32:19;;;;;;;;;;;6.80;99.90;;;;;;5069028;28;20576;-62
2021/11/07 04:34:45;;;;;;;1.70;0.60;;;6.80;99.90;;;;;;5069069;28;19920;-62
2021/11/07 04:37:11;;;;;;;0.57;0.47;;;6.90;99.90;;;;;;5069404;28;20378;-62
2021/11/07 04:39:37;;;;;;;0.52;0.52;;;6.80;99.90;;;;;;5069818;28;20033;-62
2021/11/07 04:42:03;;;;;;;3.22;0.93;;;6.80;99.90;;;;;;5069750;28;20071;-62
2021/11/07 04:44:30;;;;;;;0.70;0.70;;;6.90;99.90;;;;;;5069881;28;20524;-62
2021/11/07 04:46:57;;;;;;;0.70;0.70;;;6.90;99.90;;;;;;5065778;28;20049;-62
2021/11/07 04:49:22;;;;;;;1.02;0.80;;;6.80;99.90;;;;;;5063653;28;20442;-62
2021/11/07 04:51:48;;;;;;;1.02;0.90;;;6.80;99.90;;;;;;5066091;28;20135;-60
2021/11/07 04:54:14;;;;;;;2.08;1.00;;;6.80;99.90;;;;;;5065733;28;20079;-61
2021/11/07 04:56:40;;;;;;;1.40;1.25;;;6.80;99.90;;;;;;5064958;28;20044;-61
2021/11/07 04:59:06;;;;;;;1.67;1.10;;;6.80;99.90;;;;;;5066327;28;20842;-62
2021/11/07 05:01:31;;;;;;;1.33;1.20;;;6.80;99.90;;;;;;5059595;28;20497;-62
2021/11/07 05:03:57;;;;;;;4.13;1.83;;;6.80;99.90;;;;;;5068667;28;20086;-62
2021/11/07 05:06:23;;;;;;;2.88;1.40;;;6.80;99.90;;;;;;5064017;28;20139;-62
2021/11/07 05:08:48;;;;;;;;;;;6.80;99.90;;;;;;5068126;28;20051;-63
2021/11/07 05:11:15;;;;;;;3.92;1.65;;;6.80;99.90;;;;;;5069752;28;20571;-62
2021/11/07 05:13:41;;;;;;;1.92;1.52;;;6.80;99.90;;;;;;5068881;28;20484;-62
2021/11/07 05:16:06;;;;;;;4.30;1.67;;;6.80;99.90;;;;;;5066857;28;20114;-62
2021/11/07 05:18:32;;;;;;;2.47;1.27;;;6.80;99.90;;;;;;5057598;28;20033;-62
2021/11/07 05:20:58;;;;;;;;;;;6.80;99.90;;;;;;5079490;28;20041;-62
2021/11/07 05:23:24;;;;;;;1.92;1.23;;;6.80;99.90;;;;;;5066361;28;19999;-62
2021/11/07 05:25:49;;;;;;;;;;;6.80;99.90;;;;;;5066561;28;20041;-62
2021/11/07 05:28:15;;;;;;;3.05;1.83;;;6.80;99.90;;;;;;5064155;28;19920;-62
2021/11/07 05:30:42;;;;;;;4.13;1.70;;;6.80;99.90;;;;;;5062392;28;20036;-62
2021/11/07 05:33:08;;;;;;;2.47;1.85;;;6.80;99.90;;;;;;5063290;28;20044;-62
2021/11/07 05:35:34;;;;;;;5.88;2.88;;;6.80;99.90;;;;;;5061578;28;20072;-62
2021/11/07 05:38:00;;;;;;;3.38;2.17;;;6.80;99.90;;;;;;5062707;28;20210;-62
2021/11/07 05:40:25;;;;;;;2.47;1.98;;;6.80;99.90;;;;;;5064583;28;20515;-62
2021/11/07 05:42:51;;;;;;;;;;;6.80;99.90;;;;;;5066669;28;20032;-62
2021/11/07 05:45:17;;;;;;;4.70;2.47;;;6.80;99.90;;;;;;5066319;28;19916;-62
2021/11/07 05:47:44;;;;;;;3.05;2.28;;;6.80;99.90;;;;;;5064052;28;20045;-62
2021/11/07 05:50:10;;;;;;;3.58;2.28;;;6.80;99.90;;;;;;5067582;28;20575;-62
2021/11/07 05:52:36;;;;;;;8.35;3.20;;;6.80;99.90;;;;;;5068354;28;20618;-61
2021/11/07 05:55:03;;;;;;;3.70;2.70;;;6.80;99.90;;;;;;5067025;28;20127;-61
2021/11/07 05:57:29;;;;;;;4.45;2.95;;;6.80;99.90;;;;;;5064729;28;20386;-61
2021/11/07 05:59:54;;;;;;;3.55;2.55;;;6.80;99.90;;;;;;5064975;28;20035;-62
2021/11/07 06:02:20;;;;;;;5.70;2.40;;;6.80;99.90;;;;;;5063354;28;20100;-62
2021/11/07 06:04:46;;;;;;;;;;;6.80;99.90;;;;;;5068391;28;20048;-62
2021/11/07 06:07:11;;;;;;;2.88;2.00;;;6.90;99.90;;;;;;5062281;28;20299;-62
2021/11/07 06:09:37;;;;;;;3.58;2.65;;;6.80;99.90;;;;;;5068327;28;20381;-63
2021/11/07 06:12:04;;;;;;;3.15;2.60;;;6.80;99.90;;;;;;5067048;28;20047;-62
2021/11/07 06:14:29;;;;;;;3.47;2.55;;;6.90;99.90;;;;;;5063899;28;20032;-62
2021/11/07 06:16:55;;;;;;;;;;;6.80;99.90;;;;;;5065858;28;20060;-62
2021/11/07 06:19:21;;;;;;;5.35;2.90;;;6.90;99.90;;;;;;5064333;28;19924;-64
2021/11/07 06:21:46;;;;;;;;;;;6.90;99.90;;;;;;5068448;28;20690;-62
2021/11/07 06:24:15;;;;;;;9.45;4.47;;;6.90;99.90;;;;;;5066866;28;19920;-62
2021/11/07 06:26:41;;;;;;;8.70;4.47;;;6.90;99.90;;;;;;5065183;28;20060;-62
2021/11/07 06:29:07;;;;;;;7.68;3.70;;;6.90;99.90;;;;;;5064817;28;20037;-62
2021/11/07 06:31:33;;;;;;;5.57;3.75;;;6.90;99.90;;;;;;5066994;28;20118;-62
2021/11/07 06:33:59;;;;;;;4.70;3.42;;;6.90;99.90;;;;;;5067574;28;20055;-62
2021/11/07 06:36:24;;;;;;;5.13;3.75;;;6.90;99.90;;;;;;5067320;28;20048;-62
2021/11/07 06:38:50;;;;;;;;;;;6.90;99.90;;;;;;5066568;28;20037;-62
2021/11/07 06:41:16;;;;;;;4.88;2.83;;;6.90;99.90;;;;;;5067885;28;20406;-62
2021/11/07 06:43:42;;;;;;;9.15;4.47;;;6.90;99.90;;;;;;5066870;28;20062;-62
2021/11/07 06:46:07;;;;;;;10.00;5.45;;;6.90;99.90;;;;;;5064884;28;20045;-62
2021/11/07 06:48:34;;;;;;;8.38;3.78;;;6.90;99.90;;;;;;5067783;28;20040;-62
2021/11/07 06:51:01;;;;;;;8.40;3.50;;;6.90;99.90;;;;;;5068255;28;20386;-62
2021/11/07 06:53:27;;;;;;;3.60;2.25;;;6.90;99.90;;;;;;5065133;28;20060;-62
2021/11/07 06:55:54;;;;;;;3.75;2.08;;;6.90;99.90;;;;;;5066480;28;20548;-61
2021/11/07 06:58:20;;;;;;;2.35;1.42;;;6.90;99.90;;;;;;5064849;28;20045;-63
2021/11/07 07:00:45;;;;;;;1.90;1.30;;;6.90;99.90;;;;;;5061006;28;20041;-62
2021/11/07 07:03:11;;;;;;;1.92;1.23;;;7.00;99.90;;;;;;5066726;28;20400;-62
2021/11/07 07:05:37;;;;;;;1.50;1.30;;;6.90;99.90;;;;;;5066928;28;20102;-62
2021/11/07 07:08:25;;;;;;;1.38;0.90;;;7.00;99.90;;;;;;5064221;28;20063;-63
2021/11/07 07:11:01;;;;;;;1.48;0.80;;;7.00;99.90;;;;;;5067027;28;20439;-62
2021/11/07 07:13:53;;;;;;;1.48;0.93;;;7.10;99.90;;;;;;5065910;28;20041;-61
2021/11/07 07:34:53;;;;;;;1.98;1.25;;;7.10;99.90;;;;;;5070541;28;19923;-60
2021/11/07 07:37:18;;;;;;;6.00;3.13;;;7.10;99.90;;;;;;5067920;28;20040;-60
2021/11/07 07:39:44;;;;;;;;;;;7.20;99.90;;;;;;5068354;28;20037;-61
2021/11/07 07:42:10;;;;;;;0.70;0.60;;;7.10;99.90;;;;;;5067592;28;19942;-61
2021/11/07 07:44:35;;;;;;;1.33;0.60;;;7.20;99.90;;;;;;5070595;28;20660;-63
2021/11/07 07:47:01;;;;;;;1.27;0.90;;;7.20;99.90;;;;;;5068984;28;20044;-61
2021/11/07 07:49:27;;;;;;;1.42;1.20;;;7.20;99.90;;;;;;5067285;28;20127;-57
2021/11/07 07:51:55;;;;;;;1.77;1.30;;;7.20;99.90;;;;;;5071523;28;20473;-62
2021/11/07 07:54:21;;;;;;;3.67;1.17;;;7.20;99.90;;;;;;5069944;28;20419;-62
2021/11/07 07:56:48;;;;;;;1.00;0.85;;;7.30;99.90;;;;;;5069422;28;20428;-61
2021/11/07 07:59:15;;;;;;;1.58;1.00;;;7.30;99.90;;;;;;5068618;28;20503;-61
2021/11/07 08:01:41;;;;;;;2.78;1.13;;;7.30;99.90;;;;;;5070282;28;20123;-60
2021/11/07 08:04:07;;;;;;;1.10;0.80;;;7.30;99.90;;;;;;5069152;28;20049;-61
2021/11/07 08:06:33;;;;;;;3.63;0.65;;;7.40;99.90;;;;;;5069933;28;20047;-61
2021/11/07 08:08:59;;;;;;;;;;;7.40;99.90;;;;;;5067758;28;20040;-62
2021/11/07 08:11:25;;;;;;;1.98;1.20;;;7.40;99.90;;;;;;5066370;28;19920;-59
2021/11/07 08:13:52;;;;;;;1.45;1.17;;;7.40;99.90;;;;;;5069049;28;20071;-61
2021/11/07 08:16:20;;;;;;;7.97;1.98;;;7.50;99.90;;;;;;5068987;28;20589;-61
2021/11/07 08:18:47;;;;;;;7.43;2.20;;;7.50;99.90;;;;;;5066846;28;20048;-61
2021/11/07 08:21:13;;;;;;;2.95;1.50;;;7.60;99.90;;;;;;5066267;28;20131;-61
2021/11/07 08:23:39;;;;;;;3.95;1.88;;;7.60;99.90;;;;;;5066721;28;20123;-61
2021/11/07 08:26:05;;;;;;;3.83;2.00;;;7.60;99.90;;;;;;5069466;28;20647;-61
2021/11/07 08:28:32;;;;;;;6.05;2.50;;;7.60;99.90;;;;;;5070551;28;20048;-61
2021/11/07 08:31:07;;;;;;;5.80;2.65;;;7.60;99.90;;;;;;5069458;28;20033;-61
2021/11/07 08:33:34;;;;;;;6.40;2.50;;;7.70;99.90;;;;;;5069055;28;20037;-61
2021/11/07 08:36:07;;;;;;;15.80;5.30;;;7.70;99.90;;;;;;5069124;28;20566;-62
2021/11/07 08:38:52;;;;;;;10.73;3.20;;;7.70;99.90;;;;;;5068944;28;20048;-62
2021/11/07 08:41:19;;;;;;;15.82;4.18;;;7.70;99.90;;;;;;5063931;28;20075;-62
2021/11/07 09:05:35;;;;;;;16.90;4.47;;;7.50;99.90;;;;;;5026739;28;19922;-62
2021/11/07 09:10:30;;;;;;;21.10;4.38;;;7.70;99.90;;;;;;5069563;28;20072;-62
2021/11/07 09:12:57;;;;;;;27.42;6.43;;;7.80;99.90;;;;;;5069607;28;20113;-62
2021/11/07 09:15:25;;;;;;;23.30;3.85;;;7.80;99.90;;;;;;5069387;28;20051;-62
2021/11/07 09:17:52;;;;;;;24.58;4.50;;;7.80;99.90;;;;;;5068165;28;20645;-62
2021/11/07 09:20:25;;;;;;;25.13;4.43;;;7.70;99.90;;;;;;5068315;28;20056;-62
2021/11/07 09:22:55;;;;;;;16.23;3.30;;;7.70;99.90;;;;;;5068466;28;20033;-62
2021/11/07 09:25:27;;;;;;;21.48;3.80;;;7.70;99.90;;;;;;5069753;28;20044;-62
2021/11/07 09:28:01;;;;;;;16.60;4.05;;;7.70;99.90;;;;;;5068967;28;20041;-62
2021/11/07 09:30:32;;;;;;;17.40;4.22;;;7.60;99.90;;;;;;5067814;28;20044;-62
2021/11/07 09:35:56;;;;;;;23.02;4.10;;;7.70;99.90;;;;;;5067062;28;20051;-62
2021/11/07 09:38:33;;;;;;;15.68;3.30;;;7.60;99.90;;;;;;5064753;28;20109;-61
2021/11/07 09:46:54;;;;;;;;;;;7.70;99.90;;;;;;5065479;28;20171;-61
2021/11/07 09:49:03;;;;;;;18.13;3.38;;;7.80;99.90;;;;;;5063518;28;20007;-62
2021/11/07 09:51:34;;;;;;;17.60;3.60;;;7.80;99.90;;;;;;5066767;28;20059;-61
2021/11/07 09:54:02;;;;;;;14.32;3.80;;;7.80;99.90;;;;;;5066586;28;20052;-62
2021/11/07 09:56:28;;;;;;;14.10;4.30;;;7.80;99.90;;;;;;5066610;28;20051;-62
2021/11/07 09:58:56;;;;;;;;;;;7.80;99.90;;;;;;5065130;28;20403;-61
2021/11/07 10:01:22;;;;;;;10.57;3.92;;;7.80;99.90;;;;;;5066055;28;19916;-61
2021/11/07 10:03:50;;;;;;;20.02;5.25;;;7.80;99.90;;;;;;5066193;28;20420;-61
2021/11/07 10:06:30;;;;;;;22.63;5.82;;;7.80;99.90;;;;;;5065908;28;20049;-61
2021/11/07 10:08:58;;;;;;;15.73;4.07;;;7.80;99.90;;;;;;5065900;28;20079;-61
2021/11/07 10:11:31;;;;;;;11.50;4.00;;;7.70;99.90;;;;;;5066800;28;20040;-61
2021/11/07 10:14:06;;;;;;;18.58;4.55;;;7.80;99.90;;;;;;5067221;28;20123;-58
2021/11/07 10:16:47;;;;;;;13.68;3.83;;;7.70;99.90;;;;;;5064396;28;20520;-60
2021/11/07 10:19:26;;;;;;;17.52;4.75;;;7.70;99.90;;;;;;5054833;28;20048;-61
2021/11/07 10:21:53;;;;;;;9.60;3.67;;;7.70;99.90;;;;;;5064062;28;20048;-60
2021/11/07 10:24:24;;;;;;;14.77;3.80;;;7.70;99.90;;;;;;5062798;28;20048;-61
2021/11/07 10:27:05;;;;;;;14.25;4.75;;;7.80;99.90;;;;;;5062569;28;20046;-61
2021/11/07 10:29:34;;;;;;;19.95;4.57;;;7.80;99.90;;;;;;5064248;28;20045;-61
2021/11/07 10:32:14;;;;;;;16.67;4.75;;;7.90;99.90;;;;;;5064902;28;20462;-61
2021/11/07 10:35:13;;;;;;;16.38;5.55;;;7.90;99.90;;;;;;5066657;28;20087;-62
2021/11/07 10:38:07;;;;;;;23.45;5.13;;;7.80;99.90;;;;;;5062943;28;20041;-61
2021/11/07 10:40:41;;;;;;;22.00;5.80;;;7.70;99.90;;;;;;5059167;28;20072;-62
2021/11/07 10:54:17;;;;;;;20.50;5.45;;;7.50;99.90;;;;;;5064461;28;20125;-61
2021/11/07 10:56:46;;;;;;;24.02;5.20;;;7.50;99.90;;;;;;5064953;28;20075;-62
2021/11/07 10:59:16;;;;;;;19.33;5.47;;;7.50;99.90;;;;;;5057885;28;20094;-62
2021/11/07 11:01:44;;;;;;;16.52;4.95;;;7.50;99.90;;;;;;5064887;28;20040;-62
2021/11/07 11:04:11;;;;;;;25.48;5.70;;;7.60;99.90;;;;;;5047916;28;20411;-62
2021/11/07 11:06:38;;;;;;;18.90;5.78;;;7.90;99.90;;;;;;5043193;28;20052;-62
2021/11/07 11:09:15;;;;;;;15.48;5.00;;;8.20;99.90;;;;;;5063983;28;20051;-62
2021/11/07 11:11:46;;;;;;;21.52;6.28;;;8.30;99.90;;;;;;5066129;28;20078;-62
2021/11/07 11:16:51;;;;;;;22.88;6.68;;;8.30;99.90;;;;;;5064928;28;20052;-65
2021/11/07 11:19:50;;;;;;;19.77;4.80;;;8.40;99.90;;;;;;5067372;28;20048;-62
2021/11/07 11:35:16;;;;;;;19.23;5.18;;;9.10;99.90;;;;;;5064619;28;20055;-62
2021/11/07 11:37:53;;;;;;;14.75;4.40;;;9.00;99.90;;;;;;5062974;28;20052;-61
2021/11/07 11:40:29;;;;;;;19.80;5.00;;;9.10;99.90;;;;;;5058984;28;20045;-62
2021/11/07 11:42:59;;;;;;;15.90;4.75;;;9.10;99.90;;;;;;5063189;28;20378;-61
2021/11/07 11:45:31;;;;;;;11.77;4.35;;;9.10;99.90;;;;;;5062594;28;20496;-63
2021/11/07 12:00:19;;;;;;;14.48;3.95;;;8.90;99.90;;;;;;5065291;28;20117;-60
2021/11/07 12:02:58;;;;;;;24.90;5.70;;;9.00;99.90;;;;;;5061761;28;20033;-61
2021/11/07 12:06:15;;;;;;;14.68;5.40;;;8.70;99.90;;;;;;5056957;28;20037;-62
2021/11/07 12:08:44;;;;;;;15.82;4.05;;;8.70;99.90;;;;;;5056373;28;20067;-62
2021/11/07 12:11:21;;;;;;;23.40;5.43;;;8.50;99.90;;;;;;5065832;28;20060;-62
2021/11/07 12:13:58;;;;;;;20.20;4.70;;;8.50;99.90;;;;;;5067549;28;20093;-62
2021/11/07 12:16:53;;;;;;;22.08;6.35;;;8.50;99.90;;;;;;5067885;28;20067;-62
2021/11/07 12:19:29;;;;;;;19.50;6.70;;;8.70;99.90;;;;;;5065269;28;20044;-62
2021/11/07 12:22:01;;;;;;;14.93;5.00;;;8.60;99.90;;;;;;5068626;28;20101;-63
2021/11/07 12:24:29;;;;;;;16.67;5.03;;;8.60;99.90;;;;;;5068078;28;20049;-62
2021/11/07 12:27:24;;;;;;;14.93;5.13;;;8.60;99.90;;;;;;5068592;28;20400;-62
2021/11/07 12:29:58;;;;;;;16.95;4.30;;;8.40;99.90;;;;;;5069822;28;20109;-62
2021/11/07 12:32:45;;;;;;;20.88;5.97;;;8.30;99.90;;;;;;5068212;28;20044;-62
2021/11/07 12:35:39;;;;;;;21.40;4.03;;;8.30;99.90;;;;;;5069064;28;20044;-62
2021/11/07 12:41:06;;;;;;;22.05;5.88;;;8.20;99.90;;;;;;5067125;28;20037;-63
2021/11/07 12:43:35;;;;;;;18.02;4.45;;;8.20;99.90;;;;;;5068916;28;20048;-62
2021/11/07 12:49:06;;;;;;;17.17;3.75;;;8.20;99.90;;;;;;5065234;28;20419;-62
2021/11/07 12:51:39;;;;;;;17.95;5.13;;;8.30;99.90;;;;;;5063589;28;20040;-62
2021/11/07 12:54:18;;;;;;;15.00;3.67;;;8.30;99.90;;;;;;5065094;28;20127;-62
2021/11/07 12:57:04;;;;;;;21.40;3.65;;;8.30;99.90;;;;;;5066315;28;20496;-62
2021/11/07 12:59:43;;;;;;;16.42;3.97;;;8.20;99.90;;;;;;5059365;28;20048;-62
2021/11/07 13:02:22;;;;;;;18.27;3.75;;;8.20;99.90;;;;;;5064828;28;20045;-62
2021/11/07 13:05:25;;;;;;;16.52;3.78;;;8.10;99.90;;;;;;5066962;28;20121;-61
2021/11/07 13:08:05;;;;;;;18.67;3.45;;;8.20;99.90;;;;;;5063405;28;20044;-61
2021/11/07 13:13:35;;;;;;;14.63;3.10;;;8.20;99.90;;;;;;5067791;28;20048;-62
2021/11/07 13:16:18;;;;;;;19.58;3.60;;;8.10;99.90;;;;;;5064572;28;20041;-62
2021/11/07 13:18:51;;;;;;;16.65;3.03;;;8.10;99.90;;;;;;5051450;28;20041;-62
2021/11/07 13:27:20;;;;;;;15.43;3.00;;;8.00;99.90;;;;;;5064734;28;20063;-62
2021/11/07 13:30:02;;;;;;;13.45;2.58;;;8.00;99.90;;;;;;5067765;28;20093;-62
2021/11/07 13:35:08;;;;;;;11.80;2.55;;;8.10;99.90;;;;;;5068222;28;20094;-60
2021/11/07 13:38:15;;;;;;;12.95;2.83;;;8.10;99.90;;;;;;5064346;28;20565;-62
2021/11/07 13:40:41;;;;;;;8.68;2.50;;;8.20;99.90;;;;;;5060925;28;20133;-62
2021/11/07 13:43:09;;;;;;;;;;;8.20;99.90;;;;;;5058174;28;20140;-62
2021/11/07 13:45:39;;;;;;;18.60;3.10;;;8.20;99.90;;;;;;5066261;28;19923;-62
2021/11/07 13:48:14;;;;;;;18.63;3.05;;;8.20;99.90;;;;;;5065785;28;20119;-62
2021/11/07 13:50:42;;;;;;;13.00;3.13;;;8.20;99.90;;;;;;5063772;28;20098;-62
2021/11/07 13:53:23;;;;;;;21.63;4.68;;;8.10;99.90;;;;;;5066465;28;20045;-62
2021/11/07 13:55:52;;;;;;;12.80;3.72;;;8.10;99.90;;;;;;5066650;28;20037;-62
2021/11/07 13:58:22;;;;;;;12.32;3.08;;;8.10;99.90;;;;;;5063846;28;20048;-62
2021/11/07 14:00:50;;;;;;;15.88;2.42;;;8.00;99.90;;;;;;5063211;28;20037;-62
2021/11/07 14:03:18;;;;;;;13.15;2.80;;;8.00;99.90;;;;;;5065165;28;20074;-62
2021/11/07 14:06:01;;;;;;;12.98;2.92;;;8.00;99.90;;;;;;5067388;28;20566;-62
2021/11/07 14:08:27;;;;;;;20.33;3.53;;;8.00;99.90;;;;;;5064999;28;20067;-62
2021/11/07 14:10:53;;;;;;;;;;;7.90;99.90;;;;;;5067646;28;20041;-62
2021/11/07 14:13:20;;;;;;;10.05;2.70;;;8.00;99.90;;;;;;5067331;28;19927;-62
2021/11/07 14:15:48;;;;;;;26.25;3.22;;;8.00;99.90;;;;;;5065972;28;20036;-62
2021/11/07 14:18:24;;;;;;;12.38;2.50;;;8.00;99.90;;;;;;5065840;28;20045;-62
2021/11/07 14:20:54;;;;;;;18.25;4.85;;;8.00;99.90;;;;;;5064781;28;20040;-62
2021/11/07 14:23:43;;;;;;;21.75;3.75;;;8.00;99.90;;;;;;5065364;28;20044;-62
2021/11/07 14:26:20;;;;;;;10.73;2.00;;;7.90;99.90;;;;;;5065144;28;20155;-62
2021/11/07 14:28:53;;;;;;;10.15;2.15;;;7.90;99.90;;;;;;5065243;28;20439;-62
2021/11/07 14:31:23;;;;;;;13.57;2.80;;;7.90;99.90;;;;;;5062355;28;20032;-62
2021/11/07 14:34:00;;;;;;;16.73;2.38;;;7.80;99.90;;;;;;5067394;28;20076;-60
2021/11/07 14:39:34;;;;;;;11.32;2.17;;;7.80;99.90;;;;;;5042854;28;20571;-62
2021/11/07 14:48:31;;;;;;;11.25;2.33;;;7.70;99.90;;;;;;5063449;28;20073;-61
2021/11/07 14:51:14;;;;;;;19.60;2.58;;;7.70;99.90;;;;;;5066061;28;20032;-62
2021/11/07 14:56:51;;;;;;;13.38;2.83;;;7.70;99.90;;;;;;5064887;28;20044;-62
2021/11/07 14:59:31;;;;;;;19.35;3.80;;;7.80;99.90;;;;;;5055808;28;20029;-62
2021/11/07 15:02:19;;;;;;;11.95;3.08;;;7.80;99.90;;;;;;5065470;28;20686;-61
2021/11/07 15:04:59;;;;;;;10.65;1.98;;;7.70;99.90;;;;;;5046771;28;20049;-62
2021/11/07 15:07:38;;;;;;;13.25;2.63;;;7.70;99.90;;;;;;5052712;28;20059;-62
2021/11/07 15:16:30;;;;;;;15.07;2.78;;;7.70;99.90;;;;;;5065609;28;20040;-61
2021/11/07 15:19:01;;;;;;;17.17;2.67;;;7.70;99.90;;;;;;5066851;28;20046;-62
2021/11/07 15:24:27;;;;;;;18.83;2.92;;;7.60;99.90;;;;;;5065477;28;20079;-61
2021/11/07 15:26:57;;;;;;;19.02;3.60;;;7.50;99.90;;;;;;5064506;28;20041;-61
2021/11/07 15:29:36;;;;;;;22.65;3.22;;;7.30;99.90;;;;;;5061709;28;20500;-61
2021/11/07 15:32:11;;;;;;;15.93;2.70;;;7.20;99.90;;;;;;5064276;28;20041;-61
2021/11/07 15:34:40;;;;;;;20.35;3.25;;;7.10;99.90;;;;;;5067149;28;20082;-61
2021/11/07 15:37:10;;;;;;;16.27;2.65;;;7.10;99.90;;;;;;5063913;28;20036;-61
2021/11/07 15:39:47;;;;;;;17.52;3.53;;;7.20;99.90;;;;;;5064069;28;20093;-61
2021/11/07 15:42:19;;;;;;;13.35;3.03;;;7.10;99.90;;;;;;5064676;28;20048;-62
2021/11/07 15:44:51;;;;;;;15.75;3.22;;;7.10;99.90;;;;;;5063560;28;20045;-61
2021/11/07 15:47:22;;;;;;;16.88;4.43;;;7.10;99.90;;;;;;5060905;28;20044;-60
2021/11/07 15:49:59;;;;;;;17.10;3.63;;;7.00;99.90;;;;;;5065528;28;20053;-60